createdAt,value
2023-04-30T00:01:38.179Z,8.15
2023-04-30T00:04:08.299Z,7.88
2023-04-30T00:06:37.469Z,7.43
2023-04-30T00:09:06.941Z,7.80
2023-04-30T00:11:36.348Z,7.50
2023-04-30T00:14:05.419Z,9.13
2023-04-30T00:16:35.042Z,8.98
2023-04-30T00:19:04.615Z,10.52
2023-04-30T00:21:34.147Z,9.48
2023-04-30T00:24:03.800Z,10.07
2023-04-30T00:26:32.942Z,10.32
2023-04-30T00:29:02.089Z,9.82
2023-04-30T00:31:32.041Z,10.77
2023-04-30T00:34:01.332Z,9.77
2023-04-30T00:36:30.462Z,11.02
2023-04-30T00:39:00.230Z,11.23
2023-04-30T00:41:30.957Z,11.35
2023-04-30T00:44:00.531Z,10.85
2023-04-30T00:46:29.758Z,11.65
2023-04-30T00:49:01.340Z,12.70
2023-04-30T00:51:31.183Z,13.40
2023-04-30T00:54:04.905Z,13.25
2023-04-30T00:56:34.551Z,12.05
2023-04-30T00:59:03.694Z,12.38
2023-04-30T01:01:34.218Z,13.05
2023-04-30T01:04:03.603Z,12.25
2023-04-30T01:06:33.195Z,12.73
2023-04-30T01:09:02.863Z,12.48
2023-04-30T01:11:50.928Z,12.48
2023-04-30T01:14:34.696Z,11.77
2023-04-30T01:17:22.283Z,13.35
2023-04-30T01:19:52.269Z,13.60
2023-04-30T01:22:30.518Z,14.70
2023-04-30T01:25:23.260Z,14.80
2023-04-30T01:28:07.941Z,14.73
2023-04-30T01:30:39.725Z,14.73
2023-04-30T01:33:09.254Z,13.90
2023-04-30T01:36:10.072Z,13.75
2023-04-30T01:39:22.145Z,12.48
2023-04-30T01:42:18.211Z,11.75
2023-04-30T01:45:19.001Z,11.57
2023-04-30T01:47:59.454Z,11.75
2023-04-30T01:50:40.992Z,11.90
2023-04-30T01:53:15.498Z,10.95
2023-04-30T01:56:07.395Z,10.50
2023-04-30T01:58:39.299Z,11.60
2023-04-30T02:01:08.648Z,11.45
2023-04-30T02:03:38.122Z,11.20
2023-04-30T02:06:07.470Z,10.63
2023-04-30T02:08:36.960Z,10.82
2023-04-30T02:11:07.323Z,10.27
2023-04-30T02:13:37.473Z,10.32
2023-04-30T02:16:07.758Z,11.70
2023-04-30T02:18:37.027Z,12.15
2023-04-30T02:21:06.136Z,12.40
2023-04-30T02:23:35.430Z,12.60
2023-04-30T02:26:05.102Z,12.60
2023-04-30T02:28:34.573Z,12.18
2023-04-30T02:31:03.567Z,11.73
2023-04-30T02:33:32.962Z,12.90
2023-04-30T02:36:02.864Z,11.60
2023-04-30T02:38:32.178Z,11.90
2023-04-30T02:41:01.472Z,11.68
2023-04-30T02:43:30.682Z,12.15
2023-04-30T02:46:00.237Z,11.38
2023-04-30T02:48:29.488Z,12.25
2023-04-30T02:50:58.675Z,11.85
2023-04-30T02:53:28.139Z,12.73
2023-04-30T02:55:57.564Z,10.90
2023-04-30T02:58:27.848Z,10.82
2023-04-30T03:00:58.260Z,11.90
2023-04-30T03:03:28.059Z,11.40
2023-04-30T03:06:00.455Z,11.57
2023-04-30T03:08:30.070Z,10.90
2023-04-30T03:10:59.960Z,11.82
2023-04-30T03:13:29.593Z,11.70
2023-04-30T03:16:00.837Z,10.73
2023-04-30T03:18:31.075Z,11.93
2023-04-30T03:21:00.444Z,11.40
2023-04-30T03:23:30.561Z,10.15
2023-04-30T03:25:59.996Z,10.77
2023-04-30T03:28:29.115Z,11.57
2023-04-30T03:30:58.548Z,11.85
2023-04-30T03:33:28.550Z,11.45
2023-04-30T03:35:57.946Z,11.95
2023-04-30T03:38:27.738Z,11.88
2023-04-30T03:40:56.886Z,12.38
2023-04-30T03:43:26.266Z,11.32
2023-04-30T03:45:55.591Z,11.18
2023-04-30T03:48:25.732Z,12.25
2023-04-30T03:50:56.097Z,12.68
2023-04-30T03:53:27.581Z,11.07
2023-04-30T03:56:05.201Z,12.15
2023-04-30T03:58:34.582Z,11.20
2023-04-30T04:01:03.797Z,11.77
2023-04-30T04:03:35.586Z,11.95
2023-04-30T04:06:06.588Z,11.93
2023-04-30T04:08:35.856Z,11.55
2023-04-30T04:11:05.759Z,12.70
2023-04-30T04:13:35.202Z,11.52
2023-04-30T04:16:04.370Z,11.75
2023-04-30T04:18:33.820Z,12.85
2023-04-30T04:21:02.898Z,9.60
2023-04-30T04:23:33.350Z,10.15
2023-04-30T04:26:02.744Z,9.25
2023-04-30T04:28:32.185Z,8.88
2023-04-30T04:31:01.686Z,9.45
2023-04-30T04:33:31.148Z,11.02
2023-04-30T04:36:00.397Z,11.38
2023-04-30T04:38:29.651Z,10.50
2023-04-30T04:40:59.143Z,10.20
2023-04-30T04:43:29.211Z,10.30
2023-04-30T04:45:59.349Z,8.27
2023-04-30T04:48:28.451Z,9.10
2023-04-30T04:50:58.478Z,10.02
2023-04-30T04:53:27.819Z,8.77
2023-04-30T04:55:57.875Z,9.05
2023-04-30T04:58:28.169Z,8.75
2023-04-30T05:00:58.658Z,10.70
2023-04-30T05:03:29.844Z,9.45
2023-04-30T05:05:59.825Z,9.10
2023-04-30T05:08:29.140Z,9.43
2023-04-30T05:10:59.378Z,10.43
2023-04-30T05:13:28.517Z,9.68
2023-04-30T05:15:57.743Z,11.15
2023-04-30T05:18:27.161Z,9.23
2023-04-30T05:20:56.358Z,9.77
2023-04-30T05:23:25.855Z,9.35
2023-04-30T05:25:56.550Z,9.55
2023-04-30T05:28:26.511Z,9.57
2023-04-30T05:30:55.998Z,8.18
2023-04-30T05:33:25.682Z,8.43
2023-04-30T05:35:54.934Z,8.65
2023-04-30T05:38:24.471Z,10.50
2023-04-30T05:40:53.771Z,9.88
2023-04-30T05:43:22.707Z,7.65
2023-04-30T05:45:52.108Z,7.68
2023-04-30T05:48:21.507Z,7.90
2023-04-30T05:50:51.110Z,7.70
2023-04-30T05:53:20.752Z,7.82
2023-04-30T05:55:49.856Z,6.70
2023-04-30T05:58:19.599Z,6.05
2023-04-30T06:00:54.014Z,5.70
2023-04-30T06:03:23.603Z,5.25
2023-04-30T06:05:53.153Z,5.57
2023-04-30T06:08:22.410Z,5.13
2023-04-30T06:10:52.767Z,6.78
2023-04-30T06:13:22.391Z,5.43
2023-04-30T06:15:51.580Z,6.05
2023-04-30T06:18:21.575Z,5.43
2023-04-30T06:20:51.254Z,5.00
2023-04-30T06:23:20.832Z,4.35
2023-04-30T06:25:50.882Z,4.55
2023-04-30T06:28:20.328Z,4.30
2023-04-30T06:30:49.660Z,4.68
2023-04-30T06:33:18.690Z,4.85
2023-04-30T06:35:48.820Z,4.25
2023-04-30T06:38:21.176Z,5.20
2023-04-30T06:40:51.394Z,7.85
2023-04-30T06:43:20.615Z,8.80
2023-04-30T06:45:50.135Z,9.73
2023-04-30T06:48:19.781Z,10.55
2023-04-30T06:50:49.036Z,10.90
2023-04-30T06:53:19.325Z,10.65
2023-04-30T06:55:50.178Z,11.52
2023-04-30T06:58:21.067Z,10.13
2023-04-30T07:00:50.362Z,10.77
2023-04-30T07:03:19.862Z,10.27
2023-04-30T07:05:49.796Z,10.45
2023-04-30T07:08:18.902Z,11.60
2023-04-30T07:10:48.334Z,10.68
2023-04-30T07:13:17.734Z,9.85
2023-04-30T07:15:47.402Z,9.35
2023-04-30T07:18:17.558Z,9.23
2023-04-30T07:20:46.894Z,8.00
2023-04-30T07:23:17.108Z,8.80
2023-04-30T07:25:46.594Z,7.65
2023-04-30T07:28:16.193Z,6.28
2023-04-30T07:30:45.935Z,5.95
2023-04-30T07:33:15.783Z,5.90
2023-04-30T07:35:46.339Z,5.97
2023-04-30T07:38:16.351Z,5.78
2023-04-30T07:40:45.706Z,5.78
2023-04-30T07:43:15.350Z,4.68
2023-04-30T07:45:45.628Z,6.93
2023-04-30T07:48:15.252Z,6.28
2023-04-30T07:50:44.745Z,5.93
2023-04-30T07:53:13.973Z,5.47
2023-04-30T07:55:43.307Z,4.90
2023-04-30T07:58:12.999Z,5.40
2023-04-30T08:00:42.888Z,4.03
2023-04-30T08:03:13.453Z,4.20
2023-04-30T08:05:43.440Z,3.80
2023-04-30T08:08:12.580Z,3.72
2023-04-30T08:10:42.980Z,4.40
2023-04-30T08:13:12.525Z,3.17
2023-04-30T08:15:41.966Z,3.22
2023-04-30T08:18:11.791Z,3.28
2023-04-30T08:20:41.295Z,3.95
2023-04-30T08:23:10.593Z,3.78
2023-04-30T08:25:39.954Z,2.10
2023-04-30T08:28:10.267Z,2.10
2023-04-30T08:30:41.484Z,1.85
2023-04-30T08:33:11.207Z,2.65
2023-04-30T08:35:40.719Z,3.20
2023-04-30T08:38:10.078Z,2.72
2023-04-30T08:40:50.856Z,2.67
2023-04-30T08:43:21.753Z,2.63
2023-04-30T08:45:53.509Z,2.83
2023-04-30T08:48:25.133Z,3.45
2023-04-30T08:50:54.561Z,3.35
2023-04-30T08:53:24.047Z,3.47
2023-04-30T08:55:54.130Z,3.00
2023-04-30T08:58:23.577Z,3.55
2023-04-30T09:00:52.635Z,3.65
2023-04-30T09:03:24.809Z,3.40
2023-04-30T09:05:54.174Z,3.50
2023-04-30T09:08:52.323Z,3.72
2023-04-30T09:11:27.890Z,3.65
2023-04-30T09:13:59.994Z,3.33
2023-04-30T09:16:33.919Z,3.78
2023-04-30T09:19:04.168Z,3.30
2023-04-30T09:21:37.810Z,3.83
2023-04-30T09:24:07.950Z,4.03
2023-04-30T09:26:40.760Z,3.80
2023-04-30T09:29:11.514Z,4.43
2023-04-30T09:31:46.029Z,3.80
2023-04-30T09:34:16.459Z,3.70
2023-04-30T09:36:56.425Z,4.97
2023-04-30T09:39:26.003Z,3.70
2023-04-30T09:42:08.654Z,3.53
2023-04-30T09:44:42.889Z,4.35
2023-04-30T09:47:19.324Z,4.05
2023-04-30T09:49:53.566Z,3.95
2023-04-30T09:52:23.862Z,3.80
2023-04-30T09:54:53.600Z,3.80
2023-04-30T09:57:25.522Z,3.58
2023-04-30T09:59:56.064Z,4.32
2023-04-30T10:02:27.030Z,3.83
2023-04-30T10:04:59.844Z,3.70
2023-04-30T10:07:37.912Z,3.67
2023-04-30T10:10:12.458Z,3.60
2023-04-30T10:12:50.154Z,3.22
2023-04-30T10:15:27.032Z,4.13
2023-04-30T10:18:04.058Z,4.43
2023-04-30T10:20:40.678Z,3.28
2023-04-30T10:23:10.372Z,3.90
2023-04-30T10:25:42.164Z,3.60
2023-04-30T10:28:12.560Z,3.80
2023-04-30T10:30:46.992Z,3.30
2023-04-30T10:33:17.609Z,3.20
2023-04-30T10:35:49.775Z,3.53
2023-04-30T10:38:26.165Z,3.20
2023-04-30T10:41:01.091Z,3.33
2023-04-30T10:43:34.373Z,3.33
2023-04-30T10:46:05.246Z,3.65
2023-04-30T10:48:37.212Z,3.55
2023-04-30T10:51:07.326Z,3.58
2023-04-30T10:53:41.480Z,3.63
2023-04-30T10:56:11.100Z,4.20
2023-04-30T10:58:42.618Z,4.18
2023-04-30T11:01:16.712Z,4.70
2023-04-30T11:04:09.997Z,4.15
2023-04-30T11:06:55.286Z,4.13
2023-04-30T11:09:39.622Z,3.92
2023-04-30T11:12:17.632Z,3.83
2023-04-30T11:14:48.449Z,4.10
2023-04-30T11:17:29.870Z,4.00
2023-04-30T11:20:03.059Z,4.25
2023-04-30T11:25:10.960Z,4.20
2023-04-30T11:27:45.887Z,4.30
2023-04-30T11:30:20.494Z,4.65
2023-04-30T11:32:51.453Z,3.95
2023-04-30T11:35:21.508Z,4.45
2023-04-30T11:37:50.930Z,4.43
2023-04-30T11:40:21.948Z,4.55
2023-04-30T11:42:52.240Z,4.40
2023-04-30T11:45:22.084Z,4.47
2023-04-30T11:47:53.498Z,4.43
2023-04-30T11:50:31.022Z,4.85
2023-04-30T11:53:06.272Z,4.38
2023-04-30T11:55:35.951Z,5.07
2023-04-30T11:58:06.080Z,4.63
2023-04-30T12:00:35.875Z,4.88
2023-04-30T12:03:09.960Z,4.38
2023-04-30T12:05:43.225Z,5.60
2023-04-30T12:08:14.249Z,4.95
2023-04-30T12:10:44.426Z,4.82
2023-04-30T12:13:18.152Z,4.38
2023-04-30T12:16:00.609Z,4.75
2023-04-30T12:18:30.268Z,4.78
2023-04-30T12:21:00.518Z,5.65
2023-04-30T12:23:30.087Z,5.35
2023-04-30T12:26:01.662Z,4.43
2023-04-30T12:28:31.034Z,4.78
2023-04-30T12:31:01.342Z,5.18
2023-04-30T12:33:34.479Z,5.07
2023-04-30T12:36:04.043Z,4.88
2023-04-30T12:38:33.229Z,5.10
2023-04-30T12:41:06.614Z,5.53
2023-04-30T12:43:36.083Z,5.72
2023-04-30T12:46:05.653Z,6.07
2023-04-30T12:48:48.999Z,6.15
2023-04-30T12:51:21.675Z,7.43
2023-04-30T12:53:51.104Z,6.25
2023-04-30T12:56:21.314Z,6.55
2023-04-30T12:58:52.242Z,6.90
2023-04-30T13:01:26.338Z,7.32
2023-04-30T13:03:56.189Z,6.13
2023-04-30T13:06:25.637Z,6.57
2023-04-30T13:08:58.662Z,6.20
2023-04-30T13:11:28.452Z,6.53
2023-04-30T13:13:58.005Z,6.15
2023-04-30T13:16:27.970Z,6.95
2023-04-30T13:18:57.758Z,6.57
2023-04-30T13:21:27.608Z,7.13
2023-04-30T13:23:58.482Z,7.20
2023-04-30T13:26:30.802Z,7.80
2023-04-30T13:29:00.860Z,7.72
2023-04-30T13:31:30.694Z,7.55
2023-04-30T13:33:59.935Z,8.50
2023-04-30T13:36:30.041Z,8.38
2023-04-30T13:39:00.032Z,7.30
2023-04-30T13:41:30.504Z,7.25
2023-04-30T13:44:01.111Z,7.13
2023-04-30T13:46:31.934Z,7.57
2023-04-30T13:49:01.293Z,8.13
2023-04-30T13:51:30.478Z,8.68
2023-04-30T13:54:00.459Z,8.40
2023-04-30T13:56:30.418Z,7.88
2023-04-30T13:58:59.940Z,8.65
2023-04-30T14:01:30.047Z,8.20
2023-04-30T14:04:00.325Z,8.32
2023-04-30T14:06:30.396Z,8.07
2023-04-30T14:08:59.750Z,7.40
2023-04-30T14:11:29.229Z,8.02
2023-04-30T14:13:59.207Z,8.10
2023-04-30T14:16:28.512Z,9.95
2023-04-30T14:18:57.946Z,8.20
2023-04-30T14:21:29.708Z,8.80
2023-04-30T14:23:59.381Z,10.05
2023-04-30T14:26:28.523Z,9.68
2023-04-30T14:28:58.610Z,11.15
2023-04-30T14:31:28.364Z,9.95
2023-04-30T14:33:58.005Z,11.25
2023-04-30T14:36:28.795Z,9.35
2023-04-30T14:38:58.080Z,9.10
2023-04-30T14:41:27.391Z,8.50
2023-04-30T14:43:57.149Z,9.00
2023-04-30T14:46:27.333Z,8.18
2023-04-30T14:48:57.010Z,9.32
2023-04-30T14:51:27.017Z,9.68
2023-04-30T14:53:56.690Z,8.25
2023-04-30T14:56:26.680Z,8.77
2023-04-30T14:58:55.707Z,9.05
2023-04-30T15:01:26.512Z,9.13
2023-04-30T15:03:57.523Z,9.32
2023-04-30T15:06:27.435Z,9.07
2023-04-30T15:08:57.352Z,9.77
2023-04-30T15:11:27.772Z,10.55
2023-04-30T15:13:57.329Z,12.07
2023-04-30T15:16:27.708Z,10.65
2023-04-30T15:18:56.888Z,11.20
2023-04-30T15:21:27.824Z,11.32
2023-04-30T15:23:57.678Z,11.45
2023-04-30T15:26:27.263Z,11.90
2023-04-30T15:28:59.657Z,13.43
2023-04-30T15:31:29.611Z,12.73
2023-04-30T15:33:58.754Z,12.57
2023-04-30T15:36:28.808Z,12.93
2023-04-30T15:38:58.225Z,12.07
2023-04-30T15:41:27.503Z,13.23
2023-04-30T15:43:57.268Z,13.95
2023-04-30T15:46:26.841Z,13.30
2023-04-30T15:48:56.411Z,12.07
2023-04-30T15:51:26.065Z,11.40
2023-04-30T15:53:55.672Z,11.65
2023-04-30T15:56:27.800Z,12.15
2023-04-30T15:58:57.628Z,11.57
2023-04-30T16:01:27.002Z,12.05
2023-04-30T16:03:57.272Z,11.18
2023-04-30T16:06:28.262Z,11.90
2023-04-30T16:08:58.616Z,12.45
2023-04-30T16:11:28.036Z,11.95
2023-04-30T16:13:57.550Z,13.02
2023-04-30T16:16:28.087Z,11.80
2023-04-30T16:18:58.224Z,12.85
2023-04-30T16:21:28.489Z,11.60
2023-04-30T16:23:58.605Z,12.68
2023-04-30T16:26:27.800Z,12.48
2023-04-30T16:28:57.242Z,11.68
2023-04-30T16:31:26.651Z,10.60
2023-04-30T16:33:58.616Z,11.63
2023-04-30T16:36:29.137Z,10.75
2023-04-30T16:38:58.656Z,11.32
2023-04-30T16:41:28.019Z,11.23
2023-04-30T16:43:58.130Z,10.13
2023-04-30T16:46:28.848Z,10.88
2023-04-30T16:48:59.436Z,10.35
2023-04-30T16:51:28.790Z,11.23
2023-04-30T16:53:57.925Z,10.70
2023-04-30T16:56:28.407Z,10.63
2023-04-30T16:58:58.052Z,10.18
2023-04-30T17:01:28.281Z,11.27
2023-04-30T17:03:58.074Z,10.95
2023-04-30T17:06:27.917Z,9.95
2023-04-30T17:08:58.177Z,9.80
2023-04-30T17:11:27.872Z,9.95
2023-04-30T17:13:59.416Z,10.30
2023-04-30T17:16:28.973Z,10.35
2023-04-30T17:18:58.492Z,9.98
2023-04-30T17:21:30.057Z,10.05
2023-04-30T17:24:00.216Z,9.93
2023-04-30T17:26:30.512Z,9.85
2023-04-30T17:29:00.509Z,9.52
2023-04-30T17:31:32.368Z,10.60
2023-04-30T17:34:01.982Z,9.77
2023-04-30T17:36:31.971Z,9.55
2023-04-30T17:39:05.210Z,9.73
2023-04-30T17:44:04.254Z,9.50
2023-04-30T17:46:33.773Z,9.10
2023-04-30T17:49:04.746Z,10.30
2023-04-30T17:51:35.048Z,9.85
2023-04-30T17:54:04.685Z,9.63
2023-04-30T17:56:34.568Z,9.57
2023-04-30T17:59:05.251Z,9.45
2023-04-30T18:01:36.013Z,9.82
2023-04-30T18:04:10.198Z,9.70
2023-04-30T18:06:40.130Z,10.25
2023-04-30T18:09:10.920Z,10.80
2023-04-30T18:11:41.087Z,8.88
2023-04-30T18:14:10.941Z,9.50
2023-04-30T18:16:43.476Z,9.65
2023-04-30T18:19:14.124Z,10.73
2023-04-30T18:21:44.390Z,9.27
2023-04-30T18:24:14.673Z,9.25
2023-04-30T18:26:43.852Z,10.02
2023-04-30T18:29:17.720Z,10.45
2023-04-30T18:31:48.216Z,9.82
2023-04-30T18:34:18.207Z,10.23
2023-04-30T18:36:48.898Z,10.68
2023-04-30T18:39:18.647Z,10.48
2023-04-30T18:41:49.030Z,11.38
2023-04-30T18:44:19.358Z,11.32
2023-04-30T18:46:49.406Z,11.07
2023-04-30T18:49:19.764Z,10.95
2023-04-30T18:51:49.511Z,11.75
2023-04-30T18:54:19.365Z,11.30
2023-04-30T18:56:49.190Z,10.48
2023-04-30T18:59:20.580Z,10.90
2023-04-30T19:01:54.172Z,10.32
2023-04-30T19:04:24.237Z,11.48
2023-04-30T19:06:56.282Z,11.85
2023-04-30T19:09:28.630Z,12.25
2023-04-30T19:11:59.328Z,11.07
2023-04-30T19:14:29.773Z,10.93
2023-04-30T19:16:59.917Z,11.20
2023-04-30T19:19:30.784Z,12.02
2023-04-30T19:22:01.936Z,10.25
2023-04-30T19:24:32.842Z,10.73
2023-04-30T19:27:05.296Z,10.82
2023-04-30T19:29:36.567Z,11.05
2023-04-30T19:32:07.322Z,11.27
2023-04-30T19:34:37.578Z,11.23
2023-04-30T19:37:07.494Z,10.40
2023-04-30T19:39:37.863Z,11.50
2023-04-30T19:42:09.774Z,11.50
2023-04-30T19:44:39.962Z,10.35
2023-04-30T19:47:09.658Z,11.75
2023-04-30T19:49:39.226Z,12.60
2023-04-30T19:52:10.436Z,12.27
2023-04-30T19:54:40.135Z,12.32
2023-04-30T19:57:09.788Z,13.48
2023-04-30T19:59:39.089Z,13.18
2023-04-30T20:02:09.314Z,13.40
2023-04-30T20:04:39.198Z,13.80
2023-04-30T20:07:09.390Z,13.57
2023-04-30T20:09:38.734Z,15.07
2023-04-30T20:12:08.364Z,20.33
2023-04-30T20:14:37.696Z,21.67
2023-04-30T20:17:07.671Z,21.50
2023-04-30T20:19:37.225Z,21.23
2023-04-30T20:22:14.117Z,21.10
2023-04-30T20:24:46.444Z,21.73
2023-04-30T20:27:16.347Z,20.58
2023-04-30T20:29:45.938Z,21.23
2023-04-30T20:32:15.688Z,20.00
2023-04-30T20:34:44.983Z,17.95
2023-04-30T20:37:15.058Z,18.50
2023-04-30T20:39:44.902Z,19.10
2023-04-30T20:42:15.426Z,18.75
2023-04-30T20:44:45.124Z,17.00
2023-04-30T20:47:15.718Z,17.52
2023-04-30T20:49:45.004Z,17.25
2023-04-30T20:52:15.485Z,18.50
2023-04-30T20:54:45.809Z,16.92
2023-04-30T20:57:15.990Z,17.52
2023-04-30T20:59:45.802Z,17.85
2023-04-30T21:02:15.092Z,17.27
2023-04-30T21:04:45.025Z,17.23
2023-04-30T21:07:14.187Z,17.88
2023-04-30T21:09:44.036Z,16.95
2023-04-30T21:12:14.023Z,17.95
2023-04-30T21:14:43.719Z,17.98
2023-04-30T21:17:13.322Z,17.73
2023-04-30T21:19:43.263Z,18.52
2023-04-30T21:22:12.741Z,17.15
2023-04-30T21:24:41.978Z,18.25
2023-04-30T21:27:12.241Z,18.83
2023-04-30T21:29:44.971Z,18.38
2023-04-30T21:32:14.811Z,18.33
2023-04-30T21:34:45.114Z,18.05
2023-04-30T21:37:16.917Z,19.08
2023-04-30T21:39:47.438Z,19.00
2023-04-30T21:42:16.607Z,18.40
2023-04-30T21:44:46.028Z,17.80
2023-04-30T21:47:15.303Z,17.23
2023-04-30T21:49:44.416Z,18.88
2023-04-30T21:52:13.793Z,17.25
2023-04-30T21:54:43.508Z,17.88
2023-04-30T21:57:12.690Z,16.40
2023-04-30T21:59:43.047Z,17.55
2023-04-30T22:02:22.899Z,16.52
2023-04-30T22:04:54.575Z,17.60
2023-04-30T22:07:24.026Z,16.38
2023-04-30T22:09:53.757Z,18.17
2023-04-30T22:12:26.219Z,18.90
2023-04-30T22:14:56.973Z,18.30
2023-04-30T22:17:27.535Z,18.95
2023-04-30T22:19:58.425Z,18.77
2023-04-30T22:22:28.126Z,17.60
2023-04-30T22:24:57.728Z,17.58
2023-04-30T22:27:27.080Z,18.60
2023-04-30T22:29:56.971Z,18.00
2023-04-30T22:32:27.328Z,17.95
2023-04-30T22:34:56.665Z,18.48
2023-04-30T22:37:27.608Z,17.58
2023-04-30T22:39:57.190Z,19.20
2023-04-30T22:42:27.506Z,18.35
2023-04-30T22:44:57.087Z,19.67
2023-04-30T22:47:28.857Z,19.08
2023-04-30T22:49:58.738Z,18.55
2023-04-30T22:52:30.800Z,19.27
2023-04-30T22:55:03.132Z,19.33
2023-04-30T22:57:32.691Z,19.42
2023-04-30T23:00:01.959Z,19.42
2023-04-30T23:02:31.645Z,18.90
2023-04-30T23:05:00.727Z,19.73
2023-04-30T23:07:29.838Z,19.55
2023-04-30T23:09:59.717Z,19.10
2023-04-30T23:12:29.274Z,18.73
2023-04-30T23:14:59.970Z,19.52
2023-04-30T23:17:30.281Z,17.95
2023-04-30T23:19:59.675Z,18.02
2023-04-30T23:22:29.016Z,17.98
2023-04-30T23:24:58.210Z,17.77
2023-04-30T23:27:29.508Z,19.20
2023-04-30T23:29:58.848Z,18.13
2023-04-30T23:32:28.900Z,17.33
2023-04-30T23:34:58.958Z,17.77
2023-04-30T23:37:28.909Z,18.20
2023-04-30T23:39:58.819Z,17.40
2023-04-30T23:42:28.378Z,17.60
2023-04-30T23:44:57.454Z,17.08
2023-04-30T23:47:27.777Z,18.20
2023-04-30T23:49:57.880Z,17.95
2023-04-30T23:52:28.000Z,17.65
2023-04-30T23:54:58.030Z,18.80
2023-04-30T23:57:29.072Z,18.52
2023-04-30T23:59:59.723Z,19.17
